Time;durP1;ratioP1;P1;durP2;ratioP2;P2;SDS_P1;SDS_P2;PMS_P1;PMS_P2;Temp;Humidity;BMP_temperature;BMP_pressure;BME280_temperature;BME280_humidity;BME280_pressure;Samples;Min_cycle;Max_cycle;Signal;HPM_P1;HPM_P2
2021/06/22 00:00:04;;;;;;;;;;;16.30;97.30;;;;;;5074734;28;19920;-81
2021/06/22 00:02:30;;;;;;;;;;;16.30;97.40;;;;;;5076660;28;19956;-81
2021/06/22 00:04:55;;;;;;;;;;;16.30;97.50;;;;;;5081971;28;20306;-80
2021/06/22 00:07:21;;;;;;;;;;;16.30;97.50;;;;;;5075965;28;19908;-81
2021/06/22 00:09:47;;;;;;;;;;;16.30;97.70;;;;;;5075559;28;19913;-80
2021/06/22 00:12:12;;;;;;;;;;;16.20;97.70;;;;;;5075506;28;19912;-80
2021/06/22 00:14:38;;;;;;;;;;;16.20;97.70;;;;;;5075687;28;19916;-80
2021/06/22 00:17:03;;;;;;;;;;;16.20;97.80;;;;;;5074951;28;20613;-80
2021/06/22 00:19:29;;;;;;;;;;;16.10;97.80;;;;;;5075166;28;19987;-80
2021/06/22 00:21:54;;;;;;;;;;;16.10;97.50;;;;;;5073370;28;19924;-82
2021/06/22 00:24:20;;;;;;;;;;;16.10;97.70;;;;;;5077063;28;19954;-81
2021/06/22 00:26:46;;;;;;;;;;;16.20;97.50;;;;;;5078496;28;19916;-82
2021/06/22 00:29:11;;;;;;;;;;;16.20;97.70;;;;;;5079289;28;19916;-81
2021/06/22 00:31:37;;;;;;;;;;;16.30;98.00;;;;;;5077901;28;20034;-82
2021/06/22 00:34:02;;;;;;;;;;;16.40;98.00;;;;;;5078869;28;19912;-81
2021/06/22 00:36:28;;;;;;;;;;;16.50;98.00;;;;;;5077399;28;20274;-81
2021/06/22 00:38:53;;;;;;;;;;;16.50;98.00;;;;;;5077957;28;19966;-81
2021/06/22 00:41:19;;;;;;;;;;;16.50;98.00;;;;;;5076330;28;19927;-82
2021/06/22 00:43:45;;;;;;;;;;;16.40;98.00;;;;;;5078194;28;19920;-81
2021/06/22 00:46:10;;;;;;;;;;;16.40;98.00;;;;;;5077251;28;19912;-81
2021/06/22 00:48:36;;;;;;;;;;;16.40;98.00;;;;;;5078937;28;20476;-81
2021/06/22 00:51:01;;;;;;;;;;;16.40;98.00;;;;;;5077341;28;19912;-82
2021/06/22 00:53:27;;;;;;;;;;;16.40;98.00;;;;;;5077979;28;19912;-81
2021/06/22 00:55:53;;;;;;;;;;;16.40;98.00;;;;;;5076676;28;19921;-81
2021/06/22 00:58:20;;;;;;;;;;;16.40;98.00;;;;;;5077634;28;19939;-81
2021/06/22 01:00:45;;;;;;;;;;;16.40;98.00;;;;;;5077228;28;20327;-81
2021/06/22 01:03:11;;;;;;;;;;;16.30;98.00;;;;;;5078779;28;19912;-81
2021/06/22 01:05:36;;;;;;;;;;;16.20;98.00;;;;;;5077415;28;19916;-81
2021/06/22 01:08:02;;;;;;;;;;;16.20;98.00;;;;;;5076677;28;19936;-81
2021/06/22 01:10:28;;;;;;;;;;;16.20;98.00;;;;;;5077301;28;20516;-80
2021/06/22 01:12:54;;;;;;;;;;;16.20;98.00;;;;;;5075630;28;19913;-81
2021/06/22 01:15:21;;;;;;;;;;;16.20;98.00;;;;;;5075642;28;19970;-82
2021/06/22 01:17:46;;;;;;;;;;;16.20;98.00;;;;;;5079657;28;19939;-81
2021/06/22 01:20:13;;;;;;;;;;;16.20;98.00;;;;;;5094948;28;20301;-81
2021/06/22 01:22:43;;;;;;;;;;;16.20;98.00;;;;;;5077234;28;20343;-81
2021/06/22 01:25:09;;;;;;;;;;;16.20;98.00;;;;;;5075827;28;19920;-82
2021/06/22 01:27:34;;;;;;;;;;;16.20;98.00;;;;;;5077013;28;20411;-82
2021/06/22 01:30:00;;;;;;;;;;;16.20;98.00;;;;;;5078534;28;19917;-82
2021/06/22 01:32:26;;;;;;;;;;;16.20;98.00;;;;;;5077300;28;19925;-82
2021/06/22 01:34:51;;;;;;;;;;;16.20;98.00;;;;;;5075966;28;20007;-82
2021/06/22 01:37:17;;;;;;;;;;;16.20;98.00;;;;;;5076923;28;20262;-82
2021/06/22 01:39:43;;;;;;;;;;;16.20;98.00;;;;;;5077881;28;19923;-82
2021/06/22 01:42:08;;;;;;;;;;;16.20;98.00;;;;;;5077592;28;20301;-81
2021/06/22 01:44:34;;;;;;;;;;;16.30;98.00;;;;;;5077461;28;20483;-81
2021/06/22 01:47:00;;;;;;;;;;;16.40;98.00;;;;;;5076599;28;19916;-82
2021/06/22 01:49:25;;;;;;;;;;;16.40;98.00;;;;;;5081612;28;19913;-82
2021/06/22 01:51:51;;;;;;;;;;;16.40;98.00;;;;;;5085000;28;19912;-82
2021/06/22 01:54:17;;;;;;;;;;;16.30;98.00;;;;;;5076057;28;19916;-82
2021/06/22 01:56:48;;;;;;;;;;;16.30;98.00;;;;;;5074836;28;20280;-82
2021/06/22 01:59:14;;;;;;;;;;;16.30;98.00;;;;;;5077463;28;19912;-82
2021/06/22 02:01:40;;;;;;;;;;;16.30;98.00;;;;;;5074071;28;20221;-82
2021/06/22 02:04:06;;;;;;;;;;;16.30;98.00;;;;;;5077303;28;20377;-82
2021/06/22 02:06:31;;;;;;;;;;;16.20;98.00;;;;;;5075705;28;19959;-81
2021/06/22 02:08:57;;;;;;;;;;;16.20;98.00;;;;;;5076742;28;20260;-82
2021/06/22 02:11:22;;;;;;;;;;;16.10;98.00;;;;;;5077525;28;19969;-82
2021/06/22 02:13:48;;;;;;;;;;;16.20;98.00;;;;;;5077501;28;19909;-82
2021/06/22 02:16:15;;;;;;;;;;;16.20;98.00;;;;;;5076029;28;20015;-82
2021/06/22 02:18:41;;;;;;;;;;;16.20;97.90;;;;;;5075637;28;19917;-81
2021/06/22 02:21:06;;;;;;;;;;;16.20;98.00;;;;;;5087876;28;19919;-82
2021/06/22 02:23:33;;;;;;;;;;;16.10;98.00;;;;;;5076578;28;19947;-82
2021/06/22 02:25:58;;;;;;;;;;;16.10;98.00;;;;;;5076759;28;19912;-82
2021/06/22 02:28:24;;;;;;;;;;;16.00;98.00;;;;;;5076184;28;20423;-82
2021/06/22 02:30:50;;;;;;;;;;;16.00;98.00;;;;;;5076268;28;20003;-82
2021/06/22 02:33:16;;;;;;;;;;;16.00;98.00;;;;;;5076608;28;19919;-82
2021/06/22 02:35:42;;;;;;;;;;;16.00;98.00;;;;;;5075511;28;20229;-82
2021/06/22 02:38:08;;;;;;;;;;;16.00;97.90;;;;;;5076398;28;20305;-82
2021/06/22 02:40:34;;;;;;;;;;;16.00;97.80;;;;;;5076300;28;19916;-83
2021/06/22 02:43:00;;;;;;;;;;;16.00;97.80;;;;;;5075518;28;19927;-82
2021/06/22 02:45:26;;;;;;;;;;;16.00;97.70;;;;;;5076360;28;19948;-82
2021/06/22 02:47:51;;;;;;;;;;;16.00;97.60;;;;;;5075021;28;19963;-82
2021/06/22 02:50:18;;;;;;;;;;;15.90;97.60;;;;;;5094229;28;20309;-82
2021/06/22 02:52:43;;;;;;;;;;;15.90;97.50;;;;;;5077451;28;19924;-82
2021/06/22 02:55:19;;;;;;;;;;;15.80;97.40;;;;;;5075161;28;19920;-82
2021/06/22 02:57:49;;;;;;;;;;;15.80;97.30;;;;;;5074820;28;19951;-82
2021/06/22 03:00:15;;;;;;;;;;;15.70;97.10;;;;;;5073499;28;19913;-82
2021/06/22 03:02:41;;;;;;;;;;;15.70;97.00;;;;;;5069957;28;19918;-82
2021/06/22 03:05:07;;;;;;;;;;;15.70;96.80;;;;;;5074051;28;19908;-82
2021/06/22 03:07:32;;;;;;;;;;;15.70;96.80;;;;;;5076600;28;20220;-82
2021/06/22 03:09:58;;;;;;;;;;;15.70;96.90;;;;;;5076425;28;19913;-81
2021/06/22 03:12:23;;;;;;;;;;;15.70;96.80;;;;;;5074800;28;19948;-81
2021/06/22 03:14:49;;;;;;;;;;;15.70;96.60;;;;;;5075195;28;19960;-84
2021/06/22 03:17:15;;;;;;;;;;;15.70;96.50;;;;;;5075566;28;19916;-83
2021/06/22 03:19:40;;;;;;;;;;;15.70;96.60;;;;;;5074829;28;19917;-84
2021/06/22 03:22:06;;;;;;;;;;;15.70;96.50;;;;;;5074205;28;19919;-83
2021/06/22 03:24:31;;;;;;;;;;;15.70;96.50;;;;;;5075178;28;19912;-83
2021/06/22 03:26:57;;;;;;;;;;;15.70;96.60;;;;;;5075053;28;19912;-83
2021/06/22 03:29:24;;;;;;;;;;;15.70;96.40;;;;;;5075814;28;20297;-83
2021/06/22 03:31:49;;;;;;;;;;;15.70;96.50;;;;;;5075709;28;19917;-83
2021/06/22 03:34:15;;;;;;;;;;;15.70;96.50;;;;;;5076023;28;19912;-83
2021/06/22 03:36:40;;;;;;;;;;;15.70;96.50;;;;;;5073511;28;19912;-82
2021/06/22 03:39:09;;;;;;;;;;;15.60;96.40;;;;;;5089642;28;19916;-83
2021/06/22 03:41:34;;;;;;;;;;;15.60;96.50;;;;;;5074536;28;19912;-83
2021/06/22 03:44:00;;;;;;;;;;;15.60;96.20;;;;;;5074809;28;19996;-83
2021/06/22 03:46:26;;;;;;;;;;;15.60;96.30;;;;;;5075554;28;19919;-83
2021/06/22 03:48:51;;;;;;;;;;;15.70;96.30;;;;;;5075474;28;19916;-82
2021/06/22 03:51:17;;;;;;;;;;;15.70;96.20;;;;;;5073929;28;19943;-82
2021/06/22 03:53:42;;;;;;;;;;;15.70;96.50;;;;;;5075442;28;19920;-82
2021/06/22 03:56:08;;;;;;;;;;;15.70;96.50;;;;;;5075017;28;19962;-82
2021/06/22 03:58:34;;;;;;;;;;;15.70;96.20;;;;;;5075552;28;19944;-82
2021/06/22 04:01:03;;;;;;;;;;;15.70;96.50;;;;;;5077917;28;20050;-83
2021/06/22 04:03:29;;;;;;;;;;;15.70;96.40;;;;;;5079760;28;19920;-83
2021/06/22 04:05:55;;;;;;;;;;;15.80;96.40;;;;;;5078522;28;19909;-83
2021/06/22 04:08:20;;;;;;;;;;;15.80;96.40;;;;;;5080282;28;19936;-83
2021/06/22 04:10:46;;;;;;;;;;;15.80;96.50;;;;;;5078868;28;19912;-81
2021/06/22 04:13:11;;;;;;;;;;;15.80;96.40;;;;;;5078080;28;19973;-83
2021/06/22 04:15:37;;;;;;;;;;;15.80;96.60;;;;;;5079338;28;19912;-83
2021/06/22 04:18:03;;;;;;;;;;;15.90;97.00;;;;;;5079723;28;20070;-83
2021/06/22 04:20:29;;;;;;;;;;;15.90;97.10;;;;;;5076672;28;19920;-83
2021/06/22 04:22:54;;;;;;;;;;;15.90;97.00;;;;;;5077888;28;20297;-83
2021/06/22 04:25:20;;;;;;;;;;;15.90;97.30;;;;;;5079406;28;20463;-83
2021/06/22 04:27:46;;;;;;;;;;;16.00;97.20;;;;;;5092782;28;20301;-83
2021/06/22 04:30:11;;;;;;;;;;;16.00;97.40;;;;;;5078047;28;20006;-83
2021/06/22 04:32:37;;;;;;;;;;;16.00;97.30;;;;;;5078268;28;19913;-83
2021/06/22 04:35:03;;;;;;;;;;;16.00;97.40;;;;;;5076855;28;20305;-83
2021/06/22 04:37:28;;;;;;;;;;;16.10;97.50;;;;;;5079133;28;20351;-83
2021/06/22 04:39:54;;;;;;;;;;;16.10;97.60;;;;;;5078021;28;19913;-83
2021/06/22 04:42:19;;;;;;;;;;;16.10;97.70;;;;;;5077928;28;19966;-83
2021/06/22 04:44:45;;;;;;;;;;;16.20;97.60;;;;;;5077968;28;19916;-83
2021/06/22 04:47:11;;;;;;;;;;;16.40;97.80;;;;;;5080106;28;20316;-83
2021/06/22 04:49:36;;;;;;;;;;;16.50;98.00;;;;;;5083037;28;19952;-83
2021/06/22 04:52:02;;;;;;;;;;;16.60;98.00;;;;;;5077589;28;19921;-83
2021/06/22 04:54:28;;;;;;;;;;;16.70;98.00;;;;;;5076865;28;19912;-83
2021/06/22 04:56:54;;;;;;;;;;;16.70;98.00;;;;;;5076517;28;20229;-82
2021/06/22 04:59:20;;;;;;;;;;;16.70;98.00;;;;;;5080140;28;19920;-83
2021/06/22 05:01:48;;;;;;;;;;;16.70;98.00;;;;;;5080990;28;20301;-82
2021/06/22 05:04:15;;;;;;;;;;;16.60;98.00;;;;;;5075985;28;19920;-83
2021/06/22 05:06:40;;;;;;;;;;;16.70;98.00;;;;;;5076726;28;20372;-83
2021/06/22 05:09:06;;;;;;;;;;;16.80;98.00;;;;;;5077015;28;19963;-83
2021/06/22 05:11:32;;;;;;;;;;;17.10;98.00;;;;;;5077582;28;19913;-83
2021/06/22 05:13:57;;;;;;;;;;;17.30;98.00;;;;;;5076861;28;19912;-83
2021/06/22 05:16:23;;;;;;;;;;;17.50;97.80;;;;;;5076861;28;20327;-83
2021/06/22 05:18:49;;;;;;;;;;;17.70;97.60;;;;;;5078045;28;19943;-83
2021/06/22 05:21:15;;;;;;;;;;;17.90;96.90;;;;;;5077608;28;20209;-83
2021/06/22 05:23:41;;;;;;;;;;;18.10;96.50;;;;;;5078185;28;19916;-83
2021/06/22 05:26:06;;;;;;;;;;;18.10;97.00;;;;;;5078525;28;19909;-83
2021/06/22 05:28:32;;;;;;;;;;;18.20;96.90;;;;;;5078601;28;19917;-83
2021/06/22 05:30:57;;;;;;;;;;;18.30;96.90;;;;;;5078542;28;19966;-83
2021/06/22 05:33:23;;;;;;;;;;;18.30;96.70;;;;;;5078649;28;19912;-83
2021/06/22 05:35:49;;;;;;;;;;;18.30;96.80;;;;;;5075921;28;19920;-83
2021/06/22 05:38:14;;;;;;;;;;;18.20;97.00;;;;;;5078216;28;19980;-83
2021/06/22 05:40:40;;;;;;;;;;;18.20;97.10;;;;;;5077666;28;20370;-83
2021/06/22 05:43:05;;;;;;;;;;;18.10;96.80;;;;;;5078012;28;20362;-83
2021/06/22 05:45:31;;;;;;;;;;;18.10;97.10;;;;;;5076959;28;19913;-83
2021/06/22 05:47:57;;;;;;;;;;;18.00;97.30;;;;;;5078193;28;19914;-83
2021/06/22 05:50:22;;;;;;;;;;;18.00;97.30;;;;;;5076483;28;20221;-83
2021/06/22 05:52:53;;;;;;;;;;;18.00;97.50;;;;;;5077606;28;19920;-83
2021/06/22 05:55:21;;;;;;;;;;;17.90;97.50;;;;;;5076072;28;19966;-83
2021/06/22 05:57:47;;;;;;;;;;;17.90;97.60;;;;;;5082484;28;19935;-83
2021/06/22 06:00:14;;;;;;;;;;;18.00;97.80;;;;;;5087696;28;19927;-83
2021/06/22 06:02:39;;;;;;;;;;;18.00;97.80;;;;;;5077108;28;19931;-82
2021/06/22 06:05:05;;;;;;;;;;;18.10;97.80;;;;;;5070491;28;19912;-82
2021/06/22 06:07:31;;;;;;;;;;;18.30;97.80;;;;;;5072859;28;19920;-82
2021/06/22 06:09:56;;;;;;;;;;;18.60;97.70;;;;;;5074249;28;20229;-85
2021/06/22 06:12:22;;;;;;;;;;;18.80;96.90;;;;;;5072879;28;20368;-84
2021/06/22 06:14:47;;;;;;;;;;;18.80;96.90;;;;;;5072667;28;19915;-84
2021/06/22 06:17:13;;;;;;;;;;;18.80;97.10;;;;;;5072489;28;19920;-84
2021/06/22 06:19:39;;;;;;;;;;;19.00;97.00;;;;;;5072500;28;19999;-83
2021/06/22 06:22:05;;;;;;;;;;;19.20;96.40;;;;;;5070929;28;20209;-84
2021/06/22 06:24:31;;;;;;;;;;;19.00;96.80;;;;;;5071972;28;19920;-84
2021/06/22 06:27:03;;;;;;;;;;;18.90;96.70;;;;;;5072923;28;19919;-84
2021/06/22 06:29:36;;;;;;;;;;;18.70;96.80;;;;;;5072355;28;19913;-83
2021/06/22 06:32:02;;;;;;;;;;;18.60;97.00;;;;;;5072485;28;19924;-83
2021/06/22 06:34:28;;;;;;;;;;;18.60;97.30;;;;;;5071953;28;19964;-83
2021/06/22 06:36:53;;;;;;;;;;;18.70;97.40;;;;;;5071300;28;20384;-83
2021/06/22 06:39:19;;;;;;;;;;;19.30;96.60;;;;;;5070835;28;19931;-83
2021/06/22 06:41:44;;;;;;;;;;;19.80;96.00;;;;;;5072114;28;19919;-82
2021/06/22 06:44:10;;;;;;;;;;;19.80;95.70;;;;;;5071633;28;19951;-82
2021/06/22 06:46:35;;;;;;;;;;;20.20;95.40;;;;;;5073032;28;19974;-83
2021/06/22 06:49:01;;;;;;;;;;;20.20;94.70;;;;;;5071998;28;19920;-83
2021/06/22 06:51:26;;;;;;;;;;;20.10;94.80;;;;;;5074693;28;20353;-83
2021/06/22 06:53:52;;;;;;;;;;;20.00;94.80;;;;;;5077034;28;19913;-83
2021/06/22 06:56:17;;;;;;;;;;;19.90;95.10;;;;;;5079245;28;19912;-83
2021/06/22 06:58:43;;;;;;;;;;;19.80;94.80;;;;;;5087085;28;19944;-83
2021/06/22 07:01:08;;;;;;;;;;;19.80;95.00;;;;;;5076758;28;19916;-82
2021/06/22 07:03:34;;;;;;;;;;;19.50;95.10;;;;;;5076822;28;20014;-83
2021/06/22 07:06:00;;;;;;;;;;;19.30;95.50;;;;;;5075521;28;19912;-82
2021/06/22 07:08:25;;;;;;;;;;;19.20;96.00;;;;;;5096261;28;20300;-82
2021/06/22 07:10:51;;;;;;;;;;;19.10;96.20;;;;;;5079276;28;19978;-83
2021/06/22 07:13:17;;;;;;;;;;;18.90;96.20;;;;;;5076771;28;19913;-82
2021/06/22 07:15:43;;;;;;;;;;;18.50;96.60;;;;;;5077722;28;19912;-82
2021/06/22 07:18:09;;;;;;;;;;;18.30;97.00;;;;;;5096522;28;19919;-83
2021/06/22 07:20:34;;;;;;;;;;;18.20;97.30;;;;;;5095562;28;19934;-82
2021/06/22 07:23:00;;;;;;;;;;;18.20;97.50;;;;;;5076516;28;19909;-82
2021/06/22 07:25:26;;;;;;;;;;;18.20;97.60;;;;;;5091551;28;20202;-82
2021/06/22 07:27:55;;;;;;;;;;;18.00;97.80;;;;;;5095604;28;20253;-82
2021/06/22 07:30:23;;;;;;;;;;;17.90;97.80;;;;;;5096676;28;19908;-82
2021/06/22 07:32:53;;;;;;;;;;;17.80;98.00;;;;;;5096385;28;19998;-82
2021/06/22 07:35:19;;;;;;;;;;;17.70;98.00;;;;;;5089105;28;19916;-82
2021/06/22 07:37:44;;;;;;;;;;;17.60;98.00;;;;;;5074866;28;19927;-82
2021/06/22 07:40:10;;;;;;;;;;;17.60;98.00;;;;;;5076062;28;20264;-83
2021/06/22 07:42:36;;;;;;;;;;;17.50;98.00;;;;;;5076516;28;19936;-83
2021/06/22 07:45:02;;;;;;;;;;;17.50;97.80;;;;;;5076247;28;19915;-83
2021/06/22 07:47:28;;;;;;;;;;;17.60;97.90;;;;;;5075828;28;19919;-82
2021/06/22 07:49:53;;;;;;;;;;;17.80;98.00;;;;;;5073820;28;19908;-83
2021/06/22 07:52:19;;;;;;;;;;;17.80;97.90;;;;;;5077660;28;19919;-82
2021/06/22 07:54:44;;;;;;;;;;;17.90;98.00;;;;;;5095192;28;19912;-82
2021/06/22 07:57:10;;;;;;;;;;;17.60;98.00;;;;;;5095097;28;20220;-82
2021/06/22 07:59:35;;;;;;;;;;;17.40;97.90;;;;;;5096479;28;20189;-81
2021/06/22 08:02:02;;;;;;;;;;;17.30;98.00;;;;;;5085558;28;19982;-81
2021/06/22 08:04:27;;;;;;;;;;;17.10;97.60;;;;;;5089474;28;20269;-81
2021/06/22 08:06:53;;;;;;;;;;;17.10;97.90;;;;;;5073925;28;20011;-81
2021/06/22 08:09:19;;;;;;;;;;;17.00;97.70;;;;;;5076162;28;20198;-81
2021/06/22 08:11:45;;;;;;;;;;;17.10;97.30;;;;;;5081827;28;19920;-81
2021/06/22 08:14:11;;;;;;;;;;;17.10;97.70;;;;;;5096314;28;20262;-83
2021/06/22 08:16:36;;;;;;;;;;;17.10;98.00;;;;;;5096267;28;20304;-82
2021/06/22 08:19:03;;;;;;;;;;;17.10;98.00;;;;;;5091136;28;20028;-82
2021/06/22 08:21:34;;;;;;;;;;;17.00;98.00;;;;;;5074838;28;20419;-82
2021/06/22 08:24:00;;;;;;;;;;;16.90;98.00;;;;;;5076018;28;19914;-82
2021/06/22 08:26:26;;;;;;;;;;;16.90;98.00;;;;;;5075826;28;20287;-82
2021/06/22 08:28:52;;;;;;;;;;;17.00;98.00;;;;;;5075036;28;19915;-82
2021/06/22 08:31:19;;;;;;;;;;;17.10;98.00;;;;;;5075643;28;19913;-82
2021/06/22 08:33:45;;;;;;;;;;;17.40;98.00;;;;;;5075890;28;19920;-82
2021/06/22 08:36:10;;;;;;;;;;;17.60;98.00;;;;;;5074796;28;19908;-82
2021/06/22 08:38:36;;;;;;;;;;;17.70;98.00;;;;;;5074962;28;20000;-82
2021/06/22 08:41:04;;;;;;;;;;;18.10;98.00;;;;;;5075160;28;19917;-82
2021/06/22 08:43:29;;;;;;;;;;;18.80;98.00;;;;;;5075577;28;19919;-82
2021/06/22 08:45:55;;;;;;;;;;;19.10;97.00;;;;;;5076003;28;19912;-82
2021/06/22 08:48:21;;;;;;;;;;;19.00;95.90;;;;;;5078241;28;20561;-82
2021/06/22 08:50:47;;;;;;;;;;;18.90;96.10;;;;;;5077989;28;19966;-82
2021/06/22 08:53:16;;;;;;;;;;;18.90;96.20;;;;;;5078250;28;20316;-82
2021/06/22 08:55:42;;;;;;;;;;;18.90;96.10;;;;;;5078985;28;19998;-82
2021/06/22 08:58:09;;;;;;;;;;;19.30;96.20;;;;;;5077688;28;19916;-83
2021/06/22 09:00:36;;;;;;;;;;;19.70;95.30;;;;;;5084151;28;19912;-83
2021/06/22 09:03:03;;;;;;;;;;;19.70;95.60;;;;;;5078851;28;19909;-83
2021/06/22 09:05:29;;;;;;;;;;;19.80;95.50;;;;;;5077522;28;20309;-83
2021/06/22 09:07:55;;;;;;;;;;;20.10;95.50;;;;;;5078636;28;19913;-82
2021/06/22 09:10:30;;;;;;;;;;;20.20;95.20;;;;;;5077842;28;20003;-83
2021/06/22 09:12:56;;;;;;;;;;;19.60;95.40;;;;;;5077775;28;20300;-83
2021/06/22 09:15:32;;;;;;;;;;;19.50;96.00;;;;;;5077739;28;19980;-83
2021/06/22 09:17:58;;;;;;;;;;;19.30;95.80;;;;;;5067394;28;19917;-83
2021/06/22 09:20:31;;;;;;;;;;;19.40;95.80;;;;;;5092678;28;19940;-83
2021/06/22 09:23:13;;;;;;;;;;;19.40;96.40;;;;;;5078106;28;19909;-82
2021/06/22 09:25:39;;;;;;;;;;;19.60;95.60;;;;;;5077557;28;19920;-83
2021/06/22 09:28:04;;;;;;;;;;;19.70;95.30;;;;;;5080660;28;19931;-83
2021/06/22 09:30:46;;;;;;;;;;;19.70;95.80;;;;;;5078990;28;19909;-83
2021/06/22 09:33:18;;;;;;;;;;;19.40;95.60;;;;;;5077184;28;19919;-83
2021/06/22 09:35:44;;;;;;;;;;;19.70;94.90;;;;;;5077353;28;19919;-82
2021/06/22 09:38:10;;;;;;;;;;;19.90;94.70;;;;;;5078277;28;19927;-83
2021/06/22 09:40:35;;;;;;;;;;;20.20;94.40;;;;;;5077331;28;19908;-84
2021/06/22 09:43:01;;;;;;;;;;;20.60;94.10;;;;;;5077699;28;19913;-83
2021/06/22 09:45:29;;;;;;;;;;;21.50;92.80;;;;;;5078073;28;19908;-83
2021/06/22 09:47:57;;;;;;;;;;;22.60;89.30;;;;;;5085833;28;20335;-83
2021/06/22 09:50:32;;;;;;;;;;;23.00;88.50;;;;;;5097356;28;19920;-83
2021/06/22 09:53:17;;;;;;;;;;;22.70;89.40;;;;;;5087433;28;19965;-83
2021/06/22 09:55:42;;;;;;;;;;;22.30;89.80;;;;;;5092260;28;20225;-83
2021/06/22 09:58:08;;;;;;;;;;;22.20;89.70;;;;;;5068367;28;19943;-82
2021/06/22 10:00:37;;;;;;;;;;;21.80;89.20;;;;;;5077967;28;19909;-82
2021/06/22 10:03:03;;;;;;;;;;;21.20;90.10;;;;;;5077710;28;19924;-82
2021/06/22 10:05:29;;;;;;;;;;;20.60;91.10;;;;;;5092243;28;19967;-82
2021/06/22 10:07:58;;;;;;;;;;;20.30;92.70;;;;;;5077505;28;19919;-82
2021/06/22 10:10:36;;;;;;;;;;;20.00;92.30;;;;;;5076817;28;19908;-82
2021/06/22 10:13:02;;;;;;;;;;;19.90;92.70;;;;;;5077343;28;19916;-82
2021/06/22 10:15:28;;;;;;;;;;;19.90;93.40;;;;;;5086952;28;19938;-82
2021/06/22 10:17:53;;;;;;;;;;;19.80;93.00;;;;;;5084971;28;20351;-82
2021/06/22 10:20:19;;;;;;;;;;;19.80;93.30;;;;;;5081729;28;19962;-82
2021/06/22 10:22:47;;;;;;;;;;;20.10;93.10;;;;;;5080434;28;19958;-82
2021/06/22 10:25:14;;;;;;;;;;;20.40;93.10;;;;;;5075774;28;19924;-82
2021/06/22 10:27:39;;;;;;;;;;;20.50;92.00;;;;;;5076058;28;19955;-82
2021/06/22 10:30:07;;;;;;;;;;;20.10;92.60;;;;;;5087340;22;19924;-83
2021/06/22 10:32:33;;;;;;;;;;;19.90;92.90;;;;;;5056664;28;19992;-83
2021/06/22 10:35:10;;;;;;;;;;;19.80;93.50;;;;;;5055790;28;19975;-82
2021/06/22 10:37:37;;;;;;;;;;;19.60;93.90;;;;;;5050366;28;19921;-81
2021/06/22 10:40:20;;;;;;;;;;;19.60;93.30;;;;;;5036915;28;20216;-82
2021/06/22 10:43:06;;;;;;;;;;;19.60;93.80;;;;;;5041755;28;19917;-81
2021/06/22 10:45:31;;;;;;;;;;;19.40;94.10;;;;;;5043866;28;19962;-82
2021/06/22 10:48:01;;;;;;;;;;;19.60;94.00;;;;;;5038986;28;20251;-82
2021/06/22 10:50:26;;;;;;;;;;;19.90;93.70;;;;;;5053599;28;19913;-82
2021/06/22 10:52:53;;;;;;;;;;;20.20;93.40;;;;;;5056688;28;19913;-82
2021/06/22 10:55:21;;;;;;;;;;;20.50;93.00;;;;;;5039076;28;19931;-82
2021/06/22 10:57:56;;;;;;;;;;;20.80;91.60;;;;;;5025657;28;19923;-82
2021/06/22 11:00:21;;;;;;;;;;;21.10;91.10;;;;;;5055964;28;19970;-81
2021/06/22 11:03:04;;;;;;;;;;;21.20;89.90;;;;;;5025357;28;19913;-82
2021/06/22 11:05:31;;;;;;;;;;;21.00;89.70;;;;;;5037683;28;19915;-82
2021/06/22 11:08:09;;;;;;;;;;;20.90;90.30;;;;;;5038244;28;19965;-81
2021/06/22 11:10:35;;;;;;;;;;;20.90;90.20;;;;;;5038966;28;19963;-82
2021/06/22 11:13:01;;;;;;;;;;;20.80;90.30;;;;;;5056431;28;19913;-81
2021/06/22 11:15:45;;;;;;;;;;;20.70;90.30;;;;;;5040680;28;20309;-81
2021/06/22 11:18:15;;;;;;;;;;;20.60;91.20;;;;;;5020005;28;19918;-81
2021/06/22 11:20:42;;;;;;;;;;;20.70;90.00;;;;;;5018736;28;19909;-81
2021/06/22 11:23:11;;;;;;;;;;;20.50;91.10;;;;;;5050562;28;19942;-81
2021/06/22 11:25:51;;;;;;;;;;;20.50;90.70;;;;;;5038375;28;20003;-80
2021/06/22 11:28:17;;;;;;;;;;;20.50;90.80;;;;;;5053350;28;20301;-81
2021/06/22 11:31:12;;;;;;;;;;;20.80;89.90;;;;;;5054970;28;19944;-81
2021/06/22 11:33:44;;;;;;;;;;;20.60;90.20;;;;;;5039074;28;19913;-81
2021/06/22 11:36:28;;;;;;;;;;;20.50;91.10;;;;;;5054582;28;19913;-82
2021/06/22 11:39:26;;;;;;;;;;;20.60;90.50;;;;;;5038815;28;19961;-81
2021/06/22 11:42:06;;;;;;;;;;;20.30;90.80;;;;;;5004040;28;20370;-81
2021/06/22 11:44:33;;;;;;;;;;;19.80;92.60;;;;;;5055188;28;20304;-81
2021/06/22 11:46:58;;;;;;;;;;;19.60;92.90;;;;;;5055957;28;20004;-81
2021/06/22 11:49:40;;;;;;;;;;;19.40;93.60;;;;;;5038651;28;20347;-81
2021/06/22 11:52:06;;;;;;;;;;;19.10;93.60;;;;;;5037952;28;19968;-80
2021/06/22 11:54:51;;;;;;;;;;;18.70;93.60;;;;;;5038128;28;19913;-86
2021/06/22 11:57:17;;;;;;;;;;;18.50;94.30;;;;;;5054112;28;20204;-84
2021/06/22 11:59:43;;;;;;;;;;;18.40;94.70;;;;;;5055816;28;19916;-84
2021/06/22 12:02:08;;;;;;;;;;;18.10;94.60;;;;;;5053499;28;20324;-83
2021/06/22 12:04:34;;;;;;;;;;;18.00;94.70;;;;;;5047904;28;19913;-81
2021/06/22 12:06:59;;;;;;;;;;;17.70;95.30;;;;;;5054947;28;19912;-82
2021/06/22 12:09:26;;;;;;;;;;;17.20;96.10;;;;;;5055761;28;19916;-83
2021/06/22 12:11:54;;;;;;;;;;;16.70;96.70;;;;;;5055709;28;19920;-86
2021/06/22 12:14:20;;;;;;;;;;;16.40;97.30;;;;;;5055388;28;19913;-85
2021/06/22 12:16:48;;;;;;;;;;;16.30;97.40;;;;;;5046889;28;20619;-85
2021/06/22 12:19:20;;;;;;;;;;;16.40;97.30;;;;;;5055365;28;20010;-84
2021/06/22 12:21:51;;;;;;;;;;;16.50;97.00;;;;;;5055812;28;19921;-84
2021/06/22 12:24:18;;;;;;;;;;;16.90;96.70;;;;;;5041813;28;20213;-84
2021/06/22 12:26:48;;;;;;;;;;;17.50;97.30;;;;;;5059492;28;19923;-83
2021/06/22 12:29:17;;;;;;;;;;;18.10;98.00;;;;;;5059025;28;19983;-82
2021/06/22 12:31:53;;;;;;;;;;;18.40;97.30;;;;;;5041221;28;20011;-82
2021/06/22 12:34:20;;;;;;;;;;;18.50;97.30;;;;;;5039633;28;19913;-82
2021/06/22 12:36:45;;;;;;;;;;;18.50;95.80;;;;;;5035687;28;19913;-82
2021/06/22 12:39:11;;;;;;;;;;;18.90;95.70;;;;;;5059454;28;19966;-83
2021/06/22 12:41:37;;;;;;;;;;;19.40;95.50;;;;;;5058793;28;20209;-82
2021/06/22 12:44:07;;;;;;;;;;;19.90;96.60;;;;;;5059499;28;19988;-83
2021/06/22 12:46:34;;;;;;;;;;;20.10;95.00;;;;;;5055877;28;19928;-83
2021/06/22 12:49:01;;;;;;;;;;;20.10;94.50;;;;;;5061109;28;19921;-82
2021/06/22 12:51:40;;;;;;;;;;;21.00;94.20;;;;;;5058087;28;19909;-83
2021/06/22 12:54:07;;;;;;;;;;;21.00;91.50;;;;;;5044714;28;19917;-82
2021/06/22 12:56:44;;;;;;;;;;;20.50;92.60;;;;;;5022547;28;19955;-82
2021/06/22 12:59:10;;;;;;;;;;;20.30;93.00;;;;;;5031446;28;19917;-83
2021/06/22 13:01:38;;;;;;;;;;;20.80;92.50;;;;;;5050309;28;19924;-82
2021/06/22 13:04:05;;;;;;;;;;;21.10;89.90;;;;;;5047503;28;19924;-82
2021/06/22 13:06:37;;;;;;;;;;;20.90;91.80;;;;;;5057444;28;20013;-82
2021/06/22 13:09:07;;;;;;;;;;;21.00;91.00;;;;;;5040550;28;20054;-82
2021/06/22 13:11:35;;;;;;;;;;;20.80;90.30;;;;;;5058997;28;19919;-82
2021/06/22 13:14:11;;;;;;;;;;;21.30;92.10;;;;;;5058380;28;19919;-82
2021/06/22 13:16:37;;;;;;;;;;;22.20;91.20;;;;;;5057850;28;20312;-81
2021/06/22 13:19:08;;;;;;;;;;;22.90;86.50;;;;;;5058236;28;19917;-83
2021/06/22 13:21:35;;;;;;;;;;;22.80;83.50;;;;;;5056839;28;19917;-82
2021/06/22 13:24:01;;;;;;;;;;;23.70;86.20;;;;;;5040827;28;20327;-85
2021/06/22 13:26:26;;;;;;;;;;;24.10;82.40;;;;;;5058692;28;19956;-84
2021/06/22 13:28:56;;;;;;;;;;;24.50;80.80;;;;;;5039540;28;19959;-83
2021/06/22 13:31:22;;;;;;;;;;;24.50;80.40;;;;;;5037030;28;19975;-84
2021/06/22 13:33:57;;;;;;;;;;;24.90;81.30;;;;;;5034105;28;19917;-84
2021/06/22 13:36:22;;;;;;;;;;;25.40;79.80;;;;;;5038836;28;19913;-83
2021/06/22 13:38:59;;;;;;;;;;;25.10;75.80;;;;;;5057381;28;20011;-83
2021/06/22 13:41:25;;;;;;;;;;;24.70;77.10;;;;;;5058193;28;19916;-84
2021/06/22 13:43:50;;;;;;;;;;;24.80;78.00;;;;;;5058369;28;19912;-83
2021/06/22 13:46:20;;;;;;;;;;;24.80;77.00;;;;;;5058162;28;20323;-83
2021/06/22 13:48:50;;;;;;;;;;;25.00;78.70;;;;;;5057910;28;19912;-83
2021/06/22 13:51:29;;;;;;;;;;;24.70;79.70;;;;;;5030855;28;19936;-84
2021/06/22 13:54:02;;;;;;;;;;;24.30;79.70;;;;;;5025574;28;19913;-84
2021/06/22 13:56:29;;;;;;;;;;;24.20;81.20;;;;;;5040194;28;20252;-84
2021/06/22 13:58:55;;;;;;;;;;;23.90;79.90;;;;;;5058153;28;19913;-83
2021/06/22 14:01:20;;;;;;;;;;;23.90;81.50;;;;;;5057899;28;19970;-83
2021/06/22 14:03:46;;;;;;;;;;;23.80;82.30;;;;;;5044031;28;19913;-83
2021/06/22 14:06:11;;;;;;;;;;;23.80;82.60;;;;;;5019207;28;20305;-84
2021/06/22 14:08:37;;;;;;;;;;;23.70;83.10;;;;;;5020498;28;20273;-83
2021/06/22 14:11:03;;;;;;;;;;;24.00;82.40;;;;;;5038029;28;20047;-85
2021/06/22 14:13:29;;;;;;;;;;;24.00;82.30;;;;;;5051289;28;19958;-84
2021/06/22 14:15:56;;;;;;;;;;;24.30;82.70;;;;;;5057716;28;19909;-84